Greater Cumberland Regional Airport


Codes: KCBE/CBE
Name: Greater Cumberland Regional Airport
City: Cumberland
Country: United States
Elevation: 775 ft.
Wikipedia:

Photos at Greater Cumberland Regional Airport


   Photos courtesy of SpottingLog. You can add your own sightings and photos by signing up for a free trial today.



No photos found.

Weather at Greater Cumberland Regional Airport


Time (UTC)DescriptionTempratureWindCloud coverageVisibilityPressureHumidity
23-May-2024 21:00Light Rain27°C7 mph, NW83%10000m1015hPa57%
24-May-2024 00:00Broken Clouds23°C4 mph, N69%10000m1013hPa73%
24-May-2024 03:00Light Rain17°C4 mph, NW100%10000m1013hPa96%
24-May-2024 06:00Light Rain16°C2 mph, NW100%10000m1013hPa96%
24-May-2024 09:00Light Rain16°C2 mph, N100%10000m1012hPa97%
24-May-2024 12:00Overcast Clouds18°C0 mph, N100%10000m1013hPa94%
24-May-2024 15:00Light Rain25°C2 mph, NW68%10000m1012hPa59%
24-May-2024 18:00Light Rain25°C2 mph, N53%10000m1011hPa64%
24-May-2024 21:00Light Rain27°C2 mph, N63%10000m1010hPa55%
25-May-2024 00:00Light Rain21°C2 mph, S81%10000m1011hPa85%
25-May-2024 03:00Overcast Clouds17°C2 mph, NW100%10000m1011hPa95%
25-May-2024 06:00Overcast Clouds17°C2 mph, NW100%10000m1011hPa96%
25-May-2024 09:00Overcast Clouds16°C2 mph, NW100%10000m1011hPa96%
25-May-2024 12:00Overcast Clouds19°C0 mph, SW100%10000m1012hPa89%
25-May-2024 15:00Light Rain25°C2 mph, SW100%10000m1011hPa68%
25-May-2024 18:00Light Rain31°C4 mph, S89%10000m1008hPa38%
25-May-2024 21:00Broken Clouds31°C9 mph, W57%10000m1007hPa33%
26-May-2024 00:00Broken Clouds23°C2 mph, NW79%10000m1009hPa73%
26-May-2024 03:00Light Rain19°C4 mph, NW100%10000m1011hPa88%
26-May-2024 06:00Broken Clouds17°C2 mph, NW53%10000m1012hPa97%
26-May-2024 09:00Clear Sky15°C2 mph, NW0%10000m1012hPa97%
26-May-2024 12:00Few Clouds17°C2 mph, N20%10000m1014hPa84%
26-May-2024 15:00Scattered Clouds25°C0 mph, S29%10000m1013hPa46%
26-May-2024 18:00Scattered Clouds29°C7 mph, SE31%10000m1010hPa39%
26-May-2024 21:00Broken Clouds30°C7 mph, SE79%10000m1008hPa38%
27-May-2024 00:00Light Rain19°C4 mph, NW90%10000m1009hPa98%
27-May-2024 03:00Light Rain17°C2 mph, E100%2152m1010hPa99%
27-May-2024 06:00Moderate Rain17°C2 mph, W100%1898m1009hPa99%
27-May-2024 09:00Heavy Intensity Rain17°C2 mph, SW100%122m1008hPa100%
27-May-2024 12:00Light Rain18°C2 mph, S100%2923m1008hPa98%
27-May-2024 15:00Overcast Clouds26°C7 mph, S100%10000m1006hPa67%
27-May-2024 18:00Light Rain30°C13 mph, W100%10000m1005hPa46%
27-May-2024 21:00Light Rain27°C13 mph, W45%10000m1006hPa59%
28-May-2024 00:00Few Clouds23°C7 mph, SW23%10000m1005hPa74%
28-May-2024 03:00Light Rain18°C2 mph, W0%10000m1007hPa90%
28-May-2024 06:00Light Rain16°C7 mph, W45%10000m1008hPa91%
28-May-2024 09:00Broken Clouds17°C11 mph, W67%10000m1008hPa71%
28-May-2024 12:00Broken Clouds17°C11 mph, W62%10000m1010hPa66%
28-May-2024 15:00Clear Sky22°C13 mph, W0%10000m1012hPa46%
28-May-2024 18:00Clear Sky25°C11 mph, W0%10000m1011hPa36%